TOM6GL LEMH-EGCC
Flight info
| Callsign | TOM6GL |
|---|---|
| Flight time | N/A |
| Altitude | 34000 |
| Route | MEROS N853 LUMAS/N0471F400 DCT SOFFY DCT MRM DCT MTL DCT ETREK DCT MADOT DCT MOPEM DCT CACHI DCT AVLON DCT OKRIX DCT BRY DCT CLM DCT KOPOR DCT VESAN DCT RATUK DCT SOVAT L613 SANDY UN57 WELIN T420 ELVOS |
| Aircraft | B772/H-SDE2E3FGHIJ5LORVWXY/LB1D1 |
Departure
| Time | 2026-04-30 21:03 |
|---|---|
| Airport | Menorca Airport (LEMH) |
Arrival
| Time | N/A |
|---|---|
| Airport | Manchester Airport (EGCC) |
| Time | Latitude | Longitude | Altitude | Speed | Heading |
|---|---|---|---|---|---|
| 2026-04-30 19:48 | 39.86198 | 4.22376 | 303 ft | 0 kts | 98° |
| 2026-04-30 20:46 | 39.86201 | 4.22352 | 301 ft | 4 kts | 103° |
| 2026-04-30 20:47 | 39.86217 | 4.22298 | 300 ft | 4 kts | 126° |
| 2026-04-30 20:47 | 39.86236 | 4.22275 | 302 ft | 4 kts | 162° |
| 2026-04-30 20:48 | 39.86247 | 4.22272 | 299 ft | 0 kts | 188° |
| 2026-04-30 20:53 | 39.86223 | 4.22268 | 300 ft | 4 kts | 187° |
| 2026-04-30 20:54 | 39.86185 | 4.22222 | 302 ft | 4 kts | 263° |
| 2026-04-30 20:54 | 39.86188 | 4.22170 | 300 ft | 6 kts | 277° |
| 2026-04-30 20:54 | 39.86187 | 4.22113 | 299 ft | 6 kts | 248° |
| 2026-04-30 20:55 | 39.86108 | 4.22072 | 302 ft | 6 kts | 188° |
| 2026-04-30 20:55 | 39.86063 | 4.22063 | 301 ft | 8 kts | 188° |
| 2026-04-30 20:55 | 39.85976 | 4.22046 | 300 ft | 17 kts | 188° |
| 2026-04-30 20:56 | 39.85690 | 4.21987 | 302 ft | 22 kts | 189° |
| 2026-04-30 20:56 | 39.85538 | 4.21956 | 300 ft | 22 kts | 188° |
| 2026-04-30 20:56 | 39.85255 | 4.21897 | 288 ft | 18 kts | 189° |
| 2026-04-30 20:57 | 39.85153 | 4.21876 | 286 ft | 11 kts | 189° |
| 2026-04-30 20:57 | 39.85089 | 4.21856 | 287 ft | 5 kts | 210° |
| 2026-04-30 20:57 | 39.85067 | 4.21822 | 287 ft | 5 kts | 244° |
| 2026-04-30 20:58 | 39.85065 | 4.21786 | 286 ft | 0 kts | 281° |
| 2026-04-30 21:01 | 39.85098 | 4.21715 | 289 ft | 8 kts | 309° |
| 2026-04-30 21:01 | 39.85129 | 4.21660 | 295 ft | 6 kts | 301° |
| 2026-04-30 21:01 | 39.85163 | 4.21644 | 296 ft | 0 kts | 2° |
| 2026-04-30 21:02 | 39.85166 | 4.21644 | 296 ft | 2 kts | 5° |
| 2026-04-30 21:02 | 39.85300 | 4.21669 | 293 ft | 51 kts | 9° |
| 2026-04-30 21:02 | 39.85912 | 4.21795 | 305 ft | 124 kts | 9° |
| 2026-04-30 21:02 | 39.86953 | 4.22003 | 494 ft | 163 kts | 12° |
| 2026-04-30 21:03 | 39.88037 | 4.22256 | 1390 ft | 161 kts | 13° |
| 2026-04-30 21:03 | 39.89187 | 4.22508 | 2099 ft | 171 kts | 13° |
| 2026-04-30 21:03 | 39.90461 | 4.22779 | 2389 ft | 199 kts | 12° |
| 2026-04-30 21:03 | 39.91897 | 4.23082 | 2623 ft | 224 kts | 12° |
| 2026-04-30 21:04 | 39.93500 | 4.23418 | 2996 ft | 244 kts | 12° |
| 2026-04-30 21:04 | 39.95245 | 4.23786 | 3510 ft | 259 kts | 11° |
| 2026-04-30 21:04 | 39.98901 | 4.24551 | 4912 ft | 275 kts | 11° |
| 2026-04-30 21:05 | 40.00813 | 4.24953 | 5657 ft | 280 kts | 11° |
| 2026-04-30 21:05 | 40.02739 | 4.25384 | 6491 ft | 281 kts | 11° |
| 2026-04-30 21:05 | 40.04682 | 4.25845 | 7165 ft | 286 kts | 11° |
| 2026-04-30 21:05 | 40.06622 | 4.26310 | 7890 ft | 288 kts | 10° |
| 2026-04-30 21:06 | 40.08597 | 4.26783 | 8643 ft | 289 kts | 9° |
| 2026-04-30 21:06 | 40.10598 | 4.27262 | 9356 ft | 292 kts | 9° |
| 2026-04-30 21:06 | 40.12612 | 4.27743 | 10047 ft | 295 kts | 9° |
| 2026-04-30 21:06 | 40.14660 | 4.28231 | 10524 ft | 308 kts | 8° |
| 2026-04-30 21:07 | 40.16860 | 4.28753 | 10703 ft | 333 kts | 8° |
| 2026-04-30 21:07 | 40.19157 | 4.29299 | 11217 ft | 345 kts | 8° |
| 2026-04-30 21:07 | 40.21552 | 4.29871 | 12011 ft | 352 kts | 8° |
| 2026-04-30 21:07 | 40.23986 | 4.30454 | 13002 ft | 356 kts | 8° |
| 2026-04-30 21:08 | 40.26440 | 4.31042 | 14033 ft | 360 kts | 8° |
| 2026-04-30 21:08 | 40.28921 | 4.31637 | 14950 ft | 364 kts | 7° |
| 2026-04-30 21:08 | 40.31435 | 4.32238 | 15843 ft | 369 kts | 7° |
| 2026-04-30 21:08 | 40.33955 | 4.32842 | 16724 ft | 375 kts | 7° |
| 2026-04-30 21:09 | 40.36542 | 4.33462 | 17615 ft | 380 kts | 7° |
| 2026-04-30 21:09 | 40.39174 | 4.34093 | 18484 ft | 385 kts | 7° |
| 2026-04-30 21:09 | 40.41803 | 4.34725 | 19275 ft | 389 kts | 7° |
| 2026-04-30 21:09 | 40.44489 | 4.35371 | 20095 ft | 393 kts | 7° |
| 2026-04-30 21:10 | 40.47204 | 4.36025 | 20907 ft | 398 kts | 7° |
| 2026-04-30 21:10 | 40.49917 | 4.36677 | 21699 ft | 402 kts | 7° |
| 2026-04-30 21:10 | 40.52686 | 4.37338 | 22515 ft | 407 kts | 6° |
| 2026-04-30 21:10 | 40.55489 | 4.38000 | 23294 ft | 412 kts | 6° |
| 2026-04-30 21:11 | 40.58343 | 4.38674 | 24006 ft | 417 kts | 6° |
| 2026-04-30 21:11 | 40.61219 | 4.39354 | 24662 ft | 421 kts | 6° |
| 2026-04-30 21:11 | 40.64127 | 4.40043 | 25316 ft | 425 kts | 6° |
| 2026-04-30 21:11 | 40.67018 | 4.40730 | 25959 ft | 430 kts | 6° |
| 2026-04-30 21:12 | 40.69994 | 4.41437 | 26574 ft | 434 kts | 6° |
| 2026-04-30 21:12 | 40.72987 | 4.42150 | 27176 ft | 439 kts | 6° |
| 2026-04-30 21:12 | 40.76015 | 4.42873 | 27755 ft | 443 kts | 6° |
| 2026-04-30 21:12 | 40.79066 | 4.43601 | 28305 ft | 448 kts | 6° |
| 2026-04-30 21:13 | 40.82107 | 4.44328 | 28864 ft | 452 kts | 6° |
| 2026-04-30 21:13 | 40.85219 | 4.45073 | 29422 ft | 455 kts | 6° |
| 2026-04-30 21:13 | 40.88355 | 4.45823 | 29982 ft | 459 kts | 6° |
| 2026-04-30 21:13 | 40.91516 | 4.46583 | 30415 ft | 463 kts | 6° |
| 2026-04-30 21:14 | 40.94703 | 4.47359 | 30825 ft | 466 kts | 6° |
| 2026-04-30 21:14 | 40.97890 | 4.48141 | 31237 ft | 469 kts | 6° |
| 2026-04-30 21:14 | 41.01116 | 4.48933 | 31651 ft | 472 kts | 6° |
| 2026-04-30 21:14 | 41.04359 | 4.49728 | 32056 ft | 475 kts | 6° |
| 2026-04-30 21:15 | 41.07580 | 4.50518 | 32454 ft | 476 kts | 6° |
| 2026-04-30 21:15 | 41.10856 | 4.51319 | 32852 ft | 478 kts | 6° |
| 2026-04-30 21:15 | 41.14142 | 4.52120 | 33195 ft | 481 kts | 6° |
| 2026-04-30 21:15 | 41.17451 | 4.52926 | 33499 ft | 484 kts | 6° |
| 2026-04-30 21:16 | 41.20775 | 4.53737 | 33793 ft | 487 kts | 6° |
| 2026-04-30 21:16 | 41.24075 | 4.54544 | 34093 ft | 489 kts | 6° |
| 2026-04-30 21:16 | 41.27429 | 4.55366 | 34464 ft | 488 kts | 6° |
| 2026-04-30 21:16 | 41.30766 | 4.56187 | 34920 ft | 486 kts | 6° |
| 2026-04-30 21:17 | 41.34087 | 4.57005 | 35353 ft | 483 kts | 6° |
| 2026-04-30 21:17 | 41.37367 | 4.57812 | 35762 ft | 482 kts | 6° |
| 2026-04-30 21:17 | 41.40666 | 4.58625 | 36184 ft | 480 kts | 6° |
| 2026-04-30 21:17 | 41.43952 | 4.59434 | 36570 ft | 479 kts | 6° |
| 2026-04-30 21:18 | 41.47230 | 4.60242 | 36944 ft | 479 kts | 6° |
| 2026-04-30 21:18 | 41.50511 | 4.61052 | 37349 ft | 477 kts | 5° |
| 2026-04-30 21:18 | 41.53778 | 4.61859 | 37761 ft | 475 kts | 5° |
| 2026-04-30 21:18 | 41.56987 | 4.62653 | 38103 ft | 474 kts | 5° |
| 2026-04-30 21:19 | 41.60241 | 4.63458 | 38443 ft | 474 kts | 5° |
| 2026-04-30 21:19 | 41.63487 | 4.64262 | 38765 ft | 474 kts | 5° |
| 2026-04-30 21:19 | 41.66726 | 4.65066 | 39038 ft | 473 kts | 5° |
| 2026-04-30 21:19 | 41.69967 | 4.65871 | 39308 ft | 473 kts | 5° |
| 2026-04-30 21:20 | 41.73198 | 4.66694 | 39569 ft | 473 kts | 7° |
| 2026-04-30 21:20 | 41.76376 | 4.67788 | 39774 ft | 476 kts | 11° |
| 2026-04-30 21:20 | 41.79523 | 4.69014 | 39973 ft | 477 kts | 12° |
| 2026-04-30 21:20 | 41.82723 | 4.70298 | 40191 ft | 477 kts | 12° |
| 2026-04-30 21:21 | 41.85900 | 4.71580 | 40434 ft | 477 kts | 12° |
| 2026-04-30 21:21 | 41.89085 | 4.72860 | 40661 ft | 477 kts | 12° |
| 2026-04-30 21:21 | 41.95415 | 4.75377 | 41073 ft | 477 kts | 12° |
| 2026-04-30 21:22 | 41.98601 | 4.76635 | 41260 ft | 477 kts | 12° |
| 2026-04-30 21:22 | 42.08158 | 4.80405 | 41843 ft | 477 kts | 12° |
| 2026-04-30 21:23 | 42.11347 | 4.81666 | 42037 ft | 477 kts | 12° |
| 2026-04-30 21:23 | 42.20921 | 4.85458 | 42172 ft | 481 kts | 12° |
| 2026-04-30 21:24 | 42.27346 | 4.88015 | 42177 ft | 478 kts | 12° |
| 2026-04-30 21:24 | 42.33683 | 4.90541 | 42180 ft | 476 kts | 12° |
| 2026-04-30 21:25 | 42.43216 | 4.94348 | 42187 ft | 475 kts | 12° |
| 2026-04-30 21:26 | 42.52714 | 4.98153 | 42199 ft | 475 kts | 12° |
| 2026-04-30 21:27 | 42.62196 | 5.01965 | 42190 ft | 475 kts | 12° |
| 2026-04-30 21:27 | 42.68539 | 5.04521 | 42193 ft | 475 kts | 12° |
| 2026-04-30 21:28 | 42.78019 | 5.08352 | 42199 ft | 475 kts | 12° |
| 2026-04-30 21:29 | 42.87529 | 5.12208 | 42199 ft | 475 kts | 12° |
| 2026-04-30 21:30 | 43.03353 | 5.18649 | 42203 ft | 475 kts | 12° |
| 2026-04-30 21:31 | 43.19214 | 5.25068 | 42191 ft | 475 kts | 12° |
| 2026-04-30 21:32 | 43.28701 | 5.28927 | 42188 ft | 475 kts | 12° |
| 2026-04-30 21:32 | 43.35035 | 5.31260 | 42179 ft | 468 kts | 3° |
| 2026-04-30 21:33 | 43.44473 | 5.29741 | 42196 ft | 452 kts | 338° |
| 2026-04-30 21:34 | 43.50407 | 5.26944 | 42181 ft | 453 kts | 338° |
| 2026-04-30 21:34 | 43.58368 | 5.23203 | 42189 ft | 455 kts | 338° |
| 2026-04-30 21:35 | 43.64393 | 5.20428 | 42213 ft | 456 kts | 338° |
| 2026-04-30 21:35 | 43.70401 | 5.17673 | 42213 ft | 456 kts | 338° |
| 2026-04-30 21:36 | 43.76420 | 5.14909 | 42206 ft | 457 kts | 339° |
| 2026-04-30 21:37 | 43.88486 | 5.09347 | 42210 ft | 458 kts | 339° |
| 2026-04-30 21:37 | 43.94545 | 5.06543 | 42218 ft | 458 kts | 339° |
| 2026-04-30 21:38 | 44.00562 | 5.03754 | 42212 ft | 458 kts | 339° |
| 2026-04-30 21:38 | 44.06616 | 5.00941 | 42216 ft | 458 kts | 339° |
| 2026-04-30 21:39 | 44.12671 | 4.98122 | 42216 ft | 458 kts | 339° |
| 2026-04-30 21:39 | 44.18686 | 4.95315 | 42209 ft | 458 kts | 339° |
| 2026-04-30 21:40 | 44.24742 | 4.92483 | 42214 ft | 458 kts | 339° |
| 2026-04-30 21:40 | 44.30798 | 4.89644 | 42225 ft | 459 kts | 339° |
| 2026-04-30 21:41 | 44.36820 | 4.86815 | 42229 ft | 460 kts | 339° |
| 2026-04-30 21:41 | 44.42903 | 4.83952 | 42231 ft | 461 kts | 339° |
| 2026-04-30 21:42 | 44.48985 | 4.81082 | 42227 ft | 461 kts | 339° |
| 2026-04-30 21:42 | 44.55091 | 4.78273 | 42230 ft | 463 kts | 343° |
| 2026-04-30 21:43 | 44.61411 | 4.76566 | 42237 ft | 465 kts | 349° |
| 2026-04-30 21:43 | 44.67845 | 4.75222 | 42229 ft | 466 kts | 349° |
| 2026-04-30 21:44 | 44.74254 | 4.73853 | 42228 ft | 466 kts | 349° |
| 2026-04-30 21:44 | 44.80637 | 4.72445 | 42232 ft | 467 kts | 349° |
| 2026-04-30 21:45 | 44.87054 | 4.71015 | 42230 ft | 467 kts | 349° |
| 2026-04-30 21:45 | 44.93493 | 4.69576 | 42230 ft | 467 kts | 349° |
| 2026-04-30 21:46 | 44.99915 | 4.68141 | 42235 ft | 467 kts | 349° |
| 2026-04-30 21:46 | 45.06301 | 4.66710 | 42223 ft | 467 kts | 349° |
| 2026-04-30 21:47 | 45.12740 | 4.65264 | 42231 ft | 467 kts | 349° |
| 2026-04-30 21:47 | 45.19140 | 4.63824 | 42221 ft | 467 kts | 349° |
| 2026-04-30 21:48 | 45.25566 | 4.62360 | 42224 ft | 467 kts | 349° |
| 2026-04-30 21:48 | 45.31966 | 4.60890 | 42218 ft | 467 kts | 349° |
| 2026-04-30 21:49 | 45.38374 | 4.59416 | 42212 ft | 467 kts | 349° |
| 2026-04-30 21:49 | 45.44809 | 4.57933 | 42218 ft | 467 kts | 349° |
| 2026-04-30 21:50 | 45.51195 | 4.56459 | 42218 ft | 468 kts | 349° |
| 2026-04-30 21:50 | 45.57645 | 4.54967 | 42215 ft | 468 kts | 349° |
| 2026-04-30 21:51 | 45.64085 | 4.53474 | 42212 ft | 468 kts | 349° |
| 2026-04-30 21:51 | 45.70505 | 4.51982 | 42211 ft | 468 kts | 349° |
| 2026-04-30 21:52 | 45.76917 | 4.50490 | 42191 ft | 469 kts | 349° |
| 2026-04-30 21:52 | 45.83377 | 4.48986 | 42205 ft | 468 kts | 349° |
| 2026-04-30 21:53 | 45.89792 | 4.47489 | 42199 ft | 469 kts | 350° |
| 2026-04-30 21:53 | 45.96251 | 4.45978 | 42196 ft | 469 kts | 350° |
| 2026-04-30 21:54 | 46.02662 | 4.44474 | 42189 ft | 469 kts | 350° |
| 2026-04-30 21:54 | 46.09075 | 4.42966 | 42194 ft | 468 kts | 350° |
| 2026-04-30 21:55 | 46.15518 | 4.41448 | 42192 ft | 469 kts | 350° |
| 2026-04-30 21:55 | 46.21955 | 4.39927 | 42185 ft | 469 kts | 350° |
| 2026-04-30 21:56 | 46.28410 | 4.38381 | 42187 ft | 469 kts | 348° |
| 2026-04-30 21:56 | 46.34795 | 4.36279 | 42188 ft | 469 kts | 345° |
| 2026-04-30 21:57 | 46.41094 | 4.34013 | 42192 ft | 469 kts | 345° |
| 2026-04-30 21:57 | 46.47425 | 4.31751 | 42189 ft | 470 kts | 346° |
| 2026-04-30 21:58 | 46.53799 | 4.29502 | 42190 ft | 470 kts | 346° |
| 2026-04-30 21:58 | 46.60180 | 4.27256 | 42185 ft | 471 kts | 346° |
| 2026-04-30 21:59 | 46.66518 | 4.25020 | 42184 ft | 471 kts | 346° |
| 2026-04-30 22:00 | 46.76079 | 4.21634 | 42191 ft | 471 kts | 346° |
| 2026-04-30 22:00 | 46.85595 | 4.18250 | 42190 ft | 471 kts | 346° |
| 2026-04-30 22:01 | 46.91979 | 4.15973 | 42190 ft | 470 kts | 346° |
| 2026-04-30 22:01 | 46.98314 | 4.13708 | 42190 ft | 470 kts | 346° |
| 2026-04-30 22:02 | 47.04675 | 4.11428 | 42192 ft | 470 kts | 345° |
| 2026-04-30 22:02 | 47.10867 | 4.08394 | 42192 ft | 469 kts | 338° |
| 2026-04-30 22:03 | 47.16879 | 4.04761 | 42190 ft | 469 kts | 337° |
| 2026-04-30 22:03 | 47.22945 | 4.01090 | 42191 ft | 470 kts | 338° |
| 2026-04-30 22:04 | 47.29025 | 3.97457 | 42188 ft | 470 kts | 338° |
| 2026-04-30 22:05 | 47.38106 | 3.92041 | 42188 ft | 471 kts | 338° |
| 2026-04-30 22:05 | 47.44193 | 3.88398 | 42183 ft | 471 kts | 338° |
| 2026-04-30 22:06 | 47.50238 | 3.84769 | 42190 ft | 471 kts | 338° |
| 2026-04-30 22:06 | 47.59338 | 3.79297 | 42181 ft | 471 kts | 338° |
| 2026-04-30 22:07 | 47.65433 | 3.75644 | 42184 ft | 471 kts | 338° |
| 2026-04-30 22:07 | 47.71478 | 3.72012 | 42182 ft | 470 kts | 338° |
| 2026-04-30 22:08 | 47.77558 | 3.68346 | 42183 ft | 470 kts | 338° |
| 2026-04-30 22:08 | 47.83633 | 3.64673 | 42184 ft | 470 kts | 337° |
| 2026-04-30 22:09 | 47.89658 | 3.61021 | 42185 ft | 470 kts | 337° |
| 2026-04-30 22:09 | 47.95734 | 3.57329 | 42185 ft | 470 kts | 337° |
| 2026-04-30 22:10 | 48.01810 | 3.53613 | 42180 ft | 471 kts | 337° |
| 2026-04-30 22:10 | 48.07846 | 3.49894 | 42183 ft | 471 kts | 337° |
| 2026-04-30 22:11 | 48.16915 | 3.44290 | 42185 ft | 472 kts | 337° |
| 2026-04-30 22:12 | 48.23004 | 3.40519 | 42183 ft | 472 kts | 337° |
| 2026-04-30 22:12 | 48.29055 | 3.36761 | 42192 ft | 473 kts | 337° |
| 2026-04-30 22:13 | 48.35152 | 3.32965 | 42201 ft | 473 kts | 337° |
| 2026-04-30 22:13 | 48.41205 | 3.29186 | 42199 ft | 473 kts | 337° |
| 2026-04-30 22:14 | 48.47300 | 3.25320 | 42194 ft | 474 kts | 337° |
| 2026-04-30 22:14 | 48.53377 | 3.21431 | 42199 ft | 474 kts | 337° |
| 2026-04-30 22:15 | 48.59418 | 3.17560 | 42202 ft | 474 kts | 337° |
| 2026-04-30 22:15 | 48.65498 | 3.13659 | 42208 ft | 474 kts | 337° |
| 2026-04-30 22:16 | 48.71577 | 3.09749 | 42213 ft | 474 kts | 337° |
| 2026-04-30 22:17 | 48.83707 | 3.01905 | 42215 ft | 474 kts | 335° |
| 2026-04-30 22:17 | 48.92369 | 2.94651 | 42226 ft | 474 kts | 329° |
| 2026-04-30 22:18 | 49.00881 | 2.87064 | 42215 ft | 474 kts | 329° |
| 2026-04-30 22:19 | 49.09475 | 2.79479 | 42221 ft | 475 kts | 330° |
| 2026-04-30 22:20 | 49.18030 | 2.71917 | 42218 ft | 475 kts | 330° |
| 2026-04-30 22:20 | 49.26628 | 2.64282 | 42223 ft | 475 kts | 329° |
| 2026-04-30 22:21 | 49.32326 | 2.59203 | 42228 ft | 476 kts | 329° |
| 2026-04-30 22:21 | 49.37082 | 2.54953 | 42229 ft | 476 kts | 329° |
| 2026-04-30 22:22 | 49.42827 | 2.49807 | 42218 ft | 477 kts | 329° |
| 2026-04-30 22:22 | 49.48541 | 2.44683 | 42221 ft | 477 kts | 330° |
| 2026-04-30 22:23 | 49.54611 | 2.40501 | 42214 ft | 477 kts | 343° |
| 2026-04-30 22:23 | 49.60954 | 2.37634 | 42222 ft | 477 kts | 344° |
| 2026-04-30 22:24 | 49.67350 | 2.34828 | 42217 ft | 477 kts | 344° |
| 2026-04-30 22:24 | 49.73707 | 2.31975 | 42228 ft | 477 kts | 344° |
| 2026-04-30 22:25 | 49.80089 | 2.29063 | 42224 ft | 478 kts | 344° |
| 2026-04-30 22:25 | 49.86442 | 2.26148 | 42234 ft | 477 kts | 343° |
| 2026-04-30 22:26 | 49.95993 | 2.21755 | 42239 ft | 478 kts | 343° |
| 2026-04-30 22:27 | 50.02390 | 2.18803 | 42238 ft | 478 kts | 343° |
| 2026-04-30 22:27 | 50.11950 | 2.14379 | 42226 ft | 479 kts | 343° |
| 2026-04-30 22:28 | 50.21516 | 2.09932 | 42231 ft | 479 kts | 343° |
| 2026-04-30 22:29 | 50.34241 | 2.03804 | 42234 ft | 479 kts | 337° |
| 2026-04-30 22:30 | 50.45142 | 1.92021 | 42232 ft | 479 kts | 318° |
| 2026-04-30 22:31 | 50.52604 | 1.81608 | 42210 ft | 480 kts | 318° |
| 2026-04-30 22:32 | 50.65174 | 1.64332 | 42224 ft | 481 kts | 319° |
| 2026-04-30 22:33 | 50.77740 | 1.46927 | 42230 ft | 481 kts | 318° |
| 2026-04-30 22:35 | 50.90297 | 1.29434 | 42217 ft | 481 kts | 318° |
| 2026-04-30 22:36 | 51.02647 | 1.12097 | 42220 ft | 475 kts | 318° |
| 2026-04-30 22:37 | 51.12484 | 0.97591 | 42223 ft | 487 kts | 314° |
| 2026-04-30 22:38 | 51.22203 | 0.82271 | 42219 ft | 496 kts | 315° |
| 2026-04-30 22:39 | 51.29621 | 0.70666 | 42204 ft | 499 kts | 315° |
| 2026-04-30 22:40 | 51.44489 | 0.47251 | 42235 ft | 501 kts | 314° |
| 2026-04-30 22:41 | 51.56869 | 0.27573 | 42213 ft | 502 kts | 314° |
| 2026-04-30 22:43 | 51.71613 | 0.03744 | 41929 ft | 495 kts | 313° |
| 2026-04-30 22:43 | 51.76401 | -0.04170 | 40907 ft | 488 kts | 313° |
| 2026-04-30 22:44 | 51.81037 | -0.11840 | 39393 ft | 471 kts | 313° |
| 2026-04-30 22:45 | 51.89829 | -0.26431 | 36836 ft | 444 kts | 312° |
| 2026-04-30 22:45 | 51.94303 | -0.33905 | 35970 ft | 472 kts | 312° |
| 2026-04-30 22:46 | 51.98846 | -0.41502 | 34989 ft | 469 kts | 312° |
| 2026-04-30 22:47 | 52.07815 | -0.56565 | 32952 ft | 459 kts | 312° |
| 2026-04-30 22:47 | 52.12233 | -0.64025 | 32003 ft | 454 kts | 312° |
| 2026-04-30 22:48 | 52.16567 | -0.71365 | 31051 ft | 449 kts | 312° |
| 2026-04-30 22:49 | 52.23031 | -0.82298 | 29516 ft | 443 kts | 314° |
| 2026-04-30 22:49 | 52.30440 | -0.91036 | 27959 ft | 435 kts | 328° |
| 2026-04-30 22:50 | 52.40737 | -1.01132 | 25984 ft | 426 kts | 327° |
| 2026-04-30 22:51 | 52.45759 | -1.06151 | 24955 ft | 424 kts | 327° |
| 2026-04-30 22:51 | 52.50793 | -1.11206 | 23978 ft | 422 kts | 327° |
| 2026-04-30 22:52 | 52.53257 | -1.13706 | 23443 ft | 421 kts | 327° |
| 2026-04-30 22:52 | 52.58222 | -1.18750 | 22371 ft | 417 kts | 327° |
| 2026-04-30 22:53 | 52.63134 | -1.23721 | 21405 ft | 411 kts | 327° |
| 2026-04-30 22:53 | 52.67990 | -1.28651 | 20464 ft | 406 kts | 327° |
| 2026-04-30 22:53 | 52.70373 | -1.31076 | 20004 ft | 404 kts | 327° |
| 2026-04-30 22:54 | 52.75125 | -1.35910 | 19212 ft | 401 kts | 327° |
| 2026-04-30 22:55 | 52.82104 | -1.43025 | 17716 ft | 365 kts | 327° |
| 2026-04-30 22:55 | 52.86381 | -1.47403 | 16903 ft | 365 kts | 327° |
| 2026-04-30 22:56 | 52.90676 | -1.51812 | 16059 ft | 364 kts | 327° |
| 2026-04-30 22:56 | 52.97123 | -1.58448 | 14769 ft | 362 kts | 326° |
| 2026-04-30 22:57 | 53.01389 | -1.62849 | 13901 ft | 361 kts | 326° |
| 2026-04-30 22:57 | 53.05608 | -1.67335 | 12986 ft | 351 kts | 319° |
| 2026-04-30 22:58 | 53.08787 | -1.73266 | 12186 ft | 342 kts | 306° |
| 2026-04-30 22:59 | 53.13251 | -1.82205 | 11191 ft | 321 kts | 308° |
| 2026-04-30 22:59 | 53.17319 | -1.90122 | 9798 ft | 290 kts | 308° |